createdAt,value
2023-06-22T05:06:29.434Z,24.60
2023-06-22T05:09:16.143Z,24.80
2023-06-22T05:12:03.716Z,24.90
2023-06-22T05:14:51.771Z,24.90
2023-06-22T05:17:44.224Z,25.00
2023-06-22T05:20:30.465Z,25.10
2023-06-22T05:23:16.546Z,25.10
2023-06-22T05:26:02.047Z,25.20
2023-06-22T05:28:47.965Z,25.30
2023-06-22T05:31:34.099Z,25.40
2023-06-22T05:34:19.781Z,25.50
2023-06-22T05:37:05.690Z,25.60
2023-06-22T05:39:51.088Z,25.80
2023-06-22T05:42:36.862Z,25.90
2023-06-22T05:45:22.894Z,26.10
2023-06-22T05:48:08.491Z,26.30
2023-06-22T05:50:54.574Z,26.80
2023-06-22T05:53:40.540Z,26.60
2023-06-22T05:56:26.274Z,26.70
2023-06-22T05:59:12.030Z,26.80
2023-06-22T06:01:57.436Z,27.00
2023-06-22T06:04:43.283Z,27.10
2023-06-22T06:07:29.141Z,27.30
2023-06-22T06:10:15.625Z,27.40
2023-06-22T06:13:03.576Z,27.50
2023-06-22T06:15:49.471Z,27.70
2023-06-22T06:18:34.943Z,28.00
2023-06-22T06:21:20.934Z,28.20
2023-06-22T06:24:06.759Z,28.50
2023-06-22T06:26:52.548Z,28.70
2023-06-22T06:29:38.090Z,28.80
2023-06-22T06:32:23.907Z,29.10
2023-06-22T06:35:10.298Z,29.30
2023-06-22T06:37:55.799Z,29.60
2023-06-22T06:40:42.006Z,29.80
2023-06-22T06:43:28.117Z,30.00
2023-06-22T06:46:14.079Z,30.20
2023-06-22T06:48:59.756Z,30.40
2023-06-22T06:51:45.490Z,30.50
2023-06-22T06:54:31.258Z,30.80
2023-06-22T06:57:17.029Z,30.90
2023-06-22T07:00:02.688Z,31.00
2023-06-22T07:02:49.762Z,31.20
2023-06-22T07:05:36.479Z,31.30
2023-06-22T07:08:22.215Z,31.50
2023-06-22T07:11:08.018Z,31.60
2023-06-22T07:13:53.928Z,31.70
2023-06-22T07:16:39.729Z,31.90
2023-06-22T07:19:29.247Z,31.90
2023-06-22T07:22:14.982Z,32.20
2023-06-22T07:25:02.706Z,32.30
2023-06-22T07:28:02.433Z,32.10
2023-06-22T07:30:48.480Z,32.10
2023-06-22T07:33:34.427Z,32.20
2023-06-22T07:36:20.190Z,32.30
2023-06-22T07:39:06.474Z,32.30
2023-06-22T07:41:54.005Z,32.50
2023-06-22T07:44:40.334Z,32.50
2023-06-22T07:47:29.267Z,32.80
2023-06-22T07:50:15.141Z,33.10
2023-06-22T07:53:00.769Z,33.20
2023-06-22T07:55:48.969Z,33.50
2023-06-22T07:58:35.586Z,33.40
2023-06-22T08:01:22.328Z,33.40
2023-06-22T08:04:08.397Z,33.70
2023-06-22T08:06:54.409Z,33.90
2023-06-22T08:09:40.171Z,34.10
2023-06-22T08:12:25.765Z,34.30
2023-06-22T08:15:12.815Z,34.20
2023-06-22T08:18:00.315Z,34.00
2023-06-22T08:20:47.012Z,34.30
2023-06-22T08:23:32.902Z,34.10
2023-06-22T08:26:18.703Z,34.10
2023-06-22T08:29:06.424Z,34.10
2023-06-22T08:31:53.675Z,34.00
2023-06-22T08:34:43.243Z,34.30
2023-06-22T08:37:32.694Z,34.30
2023-06-22T08:40:19.024Z,34.10
2023-06-22T08:43:06.550Z,34.30
2023-06-22T08:45:52.164Z,34.60
2023-06-22T08:48:38.881Z,34.70
2023-06-22T08:51:25.697Z,35.00
2023-06-22T08:54:11.474Z,35.00
2023-06-22T08:56:56.757Z,35.10
2023-06-22T08:59:43.156Z,35.00
2023-06-22T09:02:32.718Z,34.70
2023-06-22T09:05:19.373Z,34.80
2023-06-22T09:08:05.318Z,34.80
2023-06-22T09:10:51.099Z,34.60
2023-06-22T09:13:36.618Z,34.40
2023-06-22T09:16:22.167Z,34.40
2023-06-22T09:19:08.125Z,34.60
2023-06-22T09:21:53.741Z,36.30
2023-06-22T09:24:39.499Z,34.20
2023-06-22T09:27:25.605Z,34.20
2023-06-22T09:30:11.475Z,34.20
2023-06-22T09:32:58.566Z,34.10
2023-06-22T09:35:45.215Z,34.10
2023-06-22T09:38:30.890Z,34.10
2023-06-22T09:41:17.113Z,34.10
2023-06-22T09:44:02.839Z,34.10
2023-06-22T09:46:48.942Z,34.10
2023-06-22T09:49:47.476Z,34.30
2023-06-22T09:52:48.031Z,34.10
2023-06-22T09:55:35.461Z,34.10
2023-06-22T09:58:21.566Z,34.00
2023-06-22T10:01:07.133Z,34.10
2023-06-22T10:03:57.871Z,34.00
2023-06-22T10:06:43.829Z,33.70
2023-06-22T10:09:30.661Z,33.70
2023-06-22T10:12:16.372Z,33.70
2023-06-22T10:15:02.408Z,33.50
2023-06-22T10:17:49.632Z,33.60
2023-06-22T10:20:35.615Z,33.70
2023-06-22T10:23:22.281Z,33.60
2023-06-22T10:26:09.003Z,33.70
2023-06-22T10:29:03.653Z,33.60
2023-06-22T10:32:00.258Z,33.50
2023-06-22T10:34:45.840Z,33.30
2023-06-22T10:37:31.864Z,33.30
2023-06-22T10:40:18.403Z,33.30
2023-06-22T10:43:04.153Z,33.30
2023-06-22T10:45:49.639Z,33.10
2023-06-22T10:48:35.345Z,33.10
2023-06-22T10:51:21.394Z,33.00
2023-06-22T10:54:06.970Z,33.10
2023-06-22T10:56:52.828Z,33.10
2023-06-22T10:59:38.714Z,32.90
2023-06-22T11:02:25.087Z,33.00
2023-06-22T11:05:11.160Z,33.10
2023-06-22T11:07:56.691Z,33.10
2023-06-22T11:10:42.327Z,33.10
2023-06-22T11:13:27.845Z,32.90
2023-06-22T11:16:13.612Z,32.90
2023-06-22T11:18:59.744Z,33.00
2023-06-22T11:21:45.862Z,33.00
2023-06-22T11:24:31.741Z,32.90
2023-06-22T11:27:17.800Z,32.80
2023-06-22T11:30:04.063Z,32.70
2023-06-22T11:32:50.088Z,32.80
2023-06-22T11:35:36.233Z,32.90
2023-06-22T11:38:21.662Z,32.80
2023-06-22T11:41:07.900Z,32.60
2023-06-22T11:43:53.798Z,32.70
2023-06-22T11:46:39.509Z,32.70
2023-06-22T11:49:25.199Z,32.50
2023-06-22T11:52:10.888Z,32.50
2023-06-22T11:54:56.412Z,32.50
2023-06-22T11:57:56.467Z,32.30
2023-06-22T12:00:51.072Z,32.40
2023-06-22T12:03:38.228Z,32.40
2023-06-22T12:06:24.001Z,32.60
2023-06-22T12:09:09.882Z,32.50
2023-06-22T12:11:55.630Z,32.70
2023-06-22T12:14:41.537Z,32.60
2023-06-22T12:17:27.287Z,32.80
2023-06-22T12:20:13.107Z,32.70
2023-06-22T12:22:59.587Z,32.80
2023-06-22T12:25:46.021Z,32.80
2023-06-22T12:28:31.963Z,32.80
2023-06-22T12:31:18.553Z,33.00
2023-06-22T12:34:04.517Z,33.10
2023-06-22T12:36:50.821Z,33.20
2023-06-22T12:39:36.202Z,33.20
2023-06-22T12:42:22.276Z,33.30
2023-06-22T12:45:08.505Z,33.20
2023-06-22T12:47:54.342Z,33.10
2023-06-22T12:50:40.197Z,33.10
2023-06-22T12:53:28.454Z,33.20
2023-06-22T12:56:13.922Z,33.10
2023-06-22T12:59:02.681Z,33.10
2023-06-22T13:01:48.721Z,32.80
2023-06-22T13:04:34.314Z,32.60
2023-06-22T13:07:23.885Z,32.60
2023-06-22T13:10:10.303Z,32.80
2023-06-22T13:13:01.693Z,32.90
2023-06-22T13:15:47.950Z,32.90
2023-06-22T13:18:34.573Z,33.00
2023-06-22T13:21:20.314Z,33.00
2023-06-22T13:24:07.477Z,32.90
2023-06-22T13:26:53.387Z,32.90
2023-06-22T13:29:38.958Z,33.00
2023-06-22T13:32:24.613Z,33.00
2023-06-22T13:35:13.351Z,32.90
2023-06-22T13:37:59.427Z,32.80
2023-06-22T13:40:45.185Z,32.90
2023-06-22T13:43:30.713Z,32.90
2023-06-22T13:46:16.479Z,32.80
2023-06-22T13:49:02.321Z,32.70
2023-06-22T13:51:49.195Z,32.70
2023-06-22T13:54:36.206Z,32.80
2023-06-22T13:57:22.174Z,32.70
2023-06-22T14:00:09.398Z,32.70
2023-06-22T14:02:58.151Z,32.60
2023-06-22T14:05:44.069Z,32.60
2023-06-22T14:11:18.474Z,32.80
2023-06-22T14:14:04.277Z,32.80
2023-06-22T14:16:50.980Z,32.90
2023-06-22T14:19:36.749Z,32.90
2023-06-22T14:22:22.870Z,33.00
2023-06-22T14:25:08.630Z,32.90
2023-06-22T14:27:54.354Z,32.90
2023-06-22T14:30:40.186Z,32.80
2023-06-22T14:33:25.636Z,32.90
2023-06-22T14:38:58.222Z,32.90
2023-06-22T14:41:44.018Z,32.90
2023-06-22T14:44:32.603Z,32.90
2023-06-22T14:47:19.960Z,32.80
2023-06-22T14:50:05.990Z,32.90
2023-06-22T14:52:51.773Z,32.90
2023-06-22T14:55:37.500Z,32.90
2023-06-22T14:58:23.098Z,32.90
2023-06-22T15:01:09.647Z,33.00
2023-06-22T15:03:55.468Z,33.00
2023-06-22T15:06:41.946Z,33.00
2023-06-22T15:09:28.172Z,33.00
2023-06-22T15:12:14.020Z,33.00
2023-06-22T15:14:59.556Z,33.00
2023-06-22T15:17:45.533Z,33.00
2023-06-22T15:20:31.353Z,33.10
2023-06-22T15:23:17.234Z,32.80
2023-06-22T15:26:03.626Z,32.80
2023-06-22T15:28:49.275Z,32.80
2023-06-22T15:31:35.789Z,32.80
2023-06-22T15:34:21.366Z,32.70
2023-06-22T15:37:07.169Z,32.80
2023-06-22T15:39:53.298Z,32.70
2023-06-22T15:42:38.983Z,32.60
2023-06-22T15:45:24.604Z,32.60
2023-06-22T15:48:10.429Z,32.50
2023-06-22T15:50:56.252Z,32.60
2023-06-22T15:53:42.199Z,32.70
2023-06-22T15:56:27.673Z,32.70
2023-06-22T15:59:13.334Z,32.80
2023-06-22T16:01:59.964Z,32.80
2023-06-22T16:04:45.734Z,32.60
2023-06-22T16:07:31.668Z,32.60
2023-06-22T16:10:19.143Z,32.80
2023-06-22T16:13:05.067Z,32.80
2023-06-22T16:15:50.728Z,32.90
2023-06-22T16:18:36.269Z,32.90
2023-06-22T16:21:22.527Z,32.80
2023-06-22T16:24:08.457Z,32.90
2023-06-22T16:26:54.102Z,32.90
2023-06-22T16:29:40.064Z,33.00
2023-06-22T16:32:25.449Z,33.00
2023-06-22T16:35:11.590Z,33.10
2023-06-22T16:37:57.145Z,33.00
2023-06-22T16:40:42.629Z,33.00
2023-06-22T16:43:28.372Z,33.00
2023-06-22T16:46:14.232Z,33.00
2023-06-22T16:48:59.786Z,33.00
2023-06-22T16:51:45.722Z,32.90
2023-06-22T16:54:31.898Z,32.80
2023-06-22T16:57:19.376Z,32.80
2023-06-22T17:00:10.657Z,32.70
2023-06-22T17:02:58.949Z,32.50
2023-06-22T17:05:44.451Z,32.50
2023-06-22T17:08:34.440Z,32.50
2023-06-22T17:11:20.437Z,32.40
2023-06-22T17:14:06.921Z,32.30
2023-06-22T17:16:52.758Z,32.30
2023-06-22T17:19:38.271Z,32.20
2023-06-22T17:22:23.981Z,32.20
2023-06-22T17:25:10.557Z,32.20
2023-06-22T17:28:03.103Z,32.20
2023-06-22T17:31:08.170Z,32.20
2023-06-22T17:33:53.897Z,32.10
2023-06-22T17:36:46.637Z,32.10
2023-06-22T17:39:32.444Z,32.10
2023-06-22T17:42:22.846Z,32.00
2023-06-22T17:45:16.132Z,32.00
2023-06-22T17:48:01.863Z,31.90
2023-06-22T17:50:47.660Z,31.90
2023-06-22T17:53:33.489Z,31.80
2023-06-22T17:56:20.387Z,31.80
2023-06-22T17:59:06.706Z,31.70
2023-06-22T18:01:52.886Z,31.70
2023-06-22T18:04:38.638Z,31.70
2023-06-22T18:07:26.000Z,31.70
2023-06-22T18:10:11.913Z,31.70
2023-06-22T18:12:58.159Z,31.60
2023-06-22T18:15:43.884Z,31.50
2023-06-22T18:18:30.939Z,31.40
2023-06-22T18:21:16.622Z,31.40
2023-06-22T18:24:02.199Z,31.40
2023-06-22T18:26:48.152Z,31.40
2023-06-22T18:29:33.665Z,31.30
2023-06-22T18:32:19.240Z,31.20
2023-06-22T18:35:04.939Z,31.20
2023-06-22T18:37:50.963Z,31.20
2023-06-22T18:40:36.714Z,31.10
2023-06-22T18:43:25.516Z,31.10
2023-06-22T18:46:30.111Z,31.00
2023-06-22T18:49:16.267Z,31.00
2023-06-22T18:52:05.695Z,30.90
2023-06-22T18:54:52.146Z,30.90
2023-06-22T18:57:38.205Z,30.90
2023-06-22T19:00:31.158Z,30.80
2023-06-22T19:03:33.086Z,30.70
2023-06-22T19:06:39.017Z,30.60
2023-06-22T19:09:25.036Z,30.60
2023-06-22T19:12:17.736Z,30.40
2023-06-22T19:15:04.874Z,30.30
2023-06-22T19:17:50.690Z,30.20
2023-06-22T19:20:36.211Z,30.20
2023-06-22T19:23:26.772Z,30.10
2023-06-22T19:26:13.724Z,30.10
2023-06-22T19:29:00.550Z,30.00
2023-06-22T19:31:46.867Z,29.90
2023-06-22T19:34:38.014Z,29.90
2023-06-22T19:37:24.875Z,29.90
2023-06-22T19:40:12.216Z,29.70
2023-06-22T19:42:58.073Z,29.70
2023-06-22T19:45:46.343Z,29.70
2023-06-22T19:48:32.328Z,29.50
2023-06-22T19:51:18.148Z,29.40
2023-06-22T19:54:10.584Z,29.50
2023-06-22T19:56:56.178Z,29.40
2023-06-22T19:59:42.950Z,29.40
2023-06-22T20:02:30.222Z,29.30
2023-06-22T20:05:16.414Z,29.20
2023-06-22T20:08:03.717Z,29.20
2023-06-22T20:10:49.510Z,29.20
2023-06-22T20:13:35.476Z,29.20
2023-06-22T20:16:23.319Z,29.20
2023-06-22T20:19:13.950Z,29.20
2023-06-22T20:22:04.497Z,29.10
2023-06-22T20:24:50.178Z,29.20
2023-06-22T20:27:35.645Z,29.10
2023-06-22T20:30:22.230Z,29.20
2023-06-22T20:33:17.264Z,29.20
2023-06-22T20:36:03.274Z,29.20
2023-06-22T20:38:48.934Z,29.20
2023-06-22T20:41:34.614Z,29.10
2023-06-22T20:44:20.595Z,29.10
2023-06-22T20:47:06.355Z,29.10
2023-06-22T20:49:52.288Z,29.10
2023-06-22T20:52:38.605Z,29.10
2023-06-22T20:55:24.175Z,29.00
2023-06-22T20:58:10.345Z,29.00
2023-06-22T21:01:01.553Z,29.00
2023-06-22T21:03:47.247Z,29.00
2023-06-22T21:06:32.998Z,28.90
2023-06-22T21:09:19.186Z,28.90
2023-06-22T21:12:06.348Z,28.90
2023-06-22T21:14:53.009Z,28.90
2023-06-22T21:17:41.398Z,28.80
2023-06-22T21:20:27.109Z,28.80
2023-06-22T21:23:13.465Z,28.80
2023-06-22T21:26:01.656Z,28.70
2023-06-22T21:28:47.410Z,28.40
2023-06-22T21:31:33.772Z,28.40
2023-06-22T21:34:19.381Z,28.40
2023-06-22T21:37:05.110Z,28.50
2023-06-22T21:39:51.851Z,28.50
2023-06-22T21:42:37.564Z,28.40
2023-06-22T21:45:23.236Z,28.40
2023-06-22T21:48:08.790Z,28.30
2023-06-22T21:50:54.640Z,28.20
2023-06-22T21:53:40.143Z,28.20
2023-06-22T21:56:25.667Z,28.20
2023-06-22T21:59:11.581Z,28.10
2023-06-22T22:01:57.336Z,28.20
2023-06-22T22:04:42.980Z,28.20
2023-06-22T22:07:31.595Z,28.20
2023-06-22T22:10:19.020Z,28.20
2023-06-22T22:13:04.888Z,28.10
2023-06-22T22:15:52.106Z,28.10
2023-06-22T22:18:37.498Z,28.00
2023-06-22T22:21:23.214Z,28.00
2023-06-22T22:24:08.970Z,28.00
2023-06-22T22:26:54.631Z,27.90
2023-06-22T22:29:40.291Z,27.90
2023-06-22T22:32:25.792Z,27.80
2023-06-22T22:35:11.997Z,27.70
2023-06-22T22:37:57.640Z,27.60
2023-06-22T22:40:43.188Z,27.60
2023-06-22T22:43:28.958Z,27.60
2023-06-22T22:46:14.914Z,27.60
2023-06-22T22:49:00.542Z,27.70
2023-06-22T22:51:46.254Z,27.70
2023-06-22T22:54:32.128Z,27.70
2023-06-22T22:57:17.761Z,27.70
2023-06-22T23:00:05.079Z,27.70
2023-06-22T23:02:50.642Z,27.60
2023-06-22T23:05:36.266Z,27.60
2023-06-22T23:08:22.131Z,27.60
2023-06-22T23:11:07.738Z,27.50
2023-06-22T23:13:58.454Z,27.50
2023-06-22T23:16:45.107Z,27.40
2023-06-22T23:19:34.672Z,27.40
2023-06-22T23:22:20.511Z,27.40
2023-06-22T23:25:06.462Z,27.40
2023-06-22T23:27:53.517Z,27.40
2023-06-22T23:30:38.991Z,27.30
2023-06-22T23:33:26.284Z,27.30
2023-06-22T23:36:12.280Z,27.30
2023-06-22T23:38:57.980Z,27.30
2023-06-22T23:41:44.297Z,27.30
2023-06-22T23:44:30.194Z,27.30
2023-06-22T23:47:15.653Z,27.40
2023-06-22T23:50:01.430Z,27.50
2023-06-22T23:52:50.619Z,27.40
2023-06-22T23:55:36.616Z,27.50
2023-06-22T23:58:22.328Z,27.50
